Time;durP1;ratioP1;P1;durP2;ratioP2;P2;SDS_P1;SDS_P2;PMS_P1;PMS_P2;Temp;Humidity;BMP_temperature;BMP_pressure;BME280_temperature;BME280_humidity;BME280_pressure;Samples;Min_cycle;Max_cycle;Signal;HPM_P1;HPM_P2
2023/03/06 00:00:23;;;;;;;23.60;14.50;;;;;;;7.69;48.13;96679.03;5050709;28;20507;-72
2023/03/06 00:02:48;;;;;;;26.33;14.90;;;;;;;7.51;47.39;96682.47;5051093;28;20193;-71
2023/03/06 00:05:14;;;;;;;25.90;14.73;;;;;;;7.35;48.47;96679.66;5032773;28;20427;-70
2023/03/06 00:07:40;;;;;;;26.33;14.77;;;;;;;7.44;47.80;96670.94;5057723;28;20667;-71
2023/03/06 00:10:06;;;;;;;26.00;15.13;;;;;;;7.45;47.64;96675.19;5047724;28;20451;-71
2023/03/06 00:12:32;;;;;;;24.60;14.30;;;;;;;7.41;48.13;96676.47;5050083;28;20426;-69
2023/03/06 00:14:57;;;;;;;21.83;14.20;;;;;;;7.36;47.62;96674.31;5042803;28;20446;-69
2023/03/06 00:17:23;;;;;;;23.47;14.13;;;;;;;7.29;47.71;96669.81;5056196;28;20190;-70
2023/03/06 00:19:48;;;;;;;26.73;14.60;;;;;;;7.32;47.62;96664.28;5046791;28;20597;-70
2023/03/06 00:22:14;;;;;;;24.90;14.20;;;;;;;7.35;47.38;96664.00;5046985;28;20190;-70
2023/03/06 00:24:41;;;;;;;23.63;13.67;;;;;;;7.35;47.55;96656.19;5049591;28;20201;-71
2023/03/06 00:27:09;;;;;;;21.67;13.60;;;;;;;7.38;47.53;96651.50;5047549;28;20191;-69
2023/03/06 00:29:35;;;;;;;21.50;13.73;;;;;;;7.38;47.53;96651.50;5045023;28;20503;-71
2023/03/06 00:32:01;;;;;;;26.57;13.57;;;;;;;7.40;46.60;96648.75;5051123;28;20490;-69
2023/03/06 00:34:26;;;;;;;21.00;12.80;;;;;;;7.50;46.65;96639.09;5052002;28;20250;-69
2023/03/06 00:36:52;;;;;;;21.97;12.60;;;;;;;7.50;46.74;96644.31;5036312;28;20561;-70
2023/03/06 00:39:17;;;;;;;20.80;12.67;;;;;;;7.57;46.36;96643.72;5056784;28;20274;-70
2023/03/06 00:41:43;;;;;;;23.20;12.17;;;;;;;7.53;45.58;96649.25;5058369;28;20194;-69
2023/03/06 00:44:08;;;;;;;25.60;12.20;;;;;;;7.47;46.16;96642.00;5038644;28;20192;-70
2023/03/06 00:46:34;;;;;;;19.80;12.23;;;;;;;7.56;45.86;96642.09;5041176;28;20643;-70
2023/03/06 00:48:59;;;;;;;20.37;13.10;;;;;;;7.30;45.91;96632.38;5046033;28;20195;-68
2023/03/06 00:51:25;;;;;;;29.33;13.70;;;;;;;7.36;45.97;96627.38;5050208;28;20194;-68
2023/03/06 00:53:50;;;;;;;25.57;13.30;;;;;;;7.45;45.96;96632.69;5033102;28;20683;-69
2023/03/06 00:56:16;;;;;;;32.30;13.97;;;;;;;7.44;46.44;96620.59;5038909;28;20194;-72
2023/03/06 00:58:41;;;;;;;22.67;12.30;;;;;;;7.30;46.41;96622.75;5039288;28;20195;-69
2023/03/06 01:01:07;;;;;;;22.07;13.27;;;;;;;7.21;46.46;96629.66;5040054;28;20203;-70
2023/03/06 01:03:32;;;;;;;26.40;15.70;;;;;;;7.26;46.66;96626.59;5037973;28;20191;-69
2023/03/06 01:05:58;;;;;;;22.37;13.40;;;;;;;7.28;47.12;96616.84;5036167;28;20771;-69
2023/03/06 01:08:23;;;;;;;23.47;13.80;;;;;;;7.21;46.93;96614.00;5037623;28;20183;-70
2023/03/06 01:10:49;;;;;;;23.17;14.17;;;;;;;7.33;46.33;96608.59;5050909;28;20652;-70
2023/03/06 01:13:14;;;;;;;26.23;14.27;;;;;;;7.30;46.96;96603.69;5057820;28;20602;-68
2023/03/06 01:15:40;;;;;;;23.60;13.83;;;;;;;7.32;46.58;96599.97;5047732;28;20215;-70
2023/03/06 01:18:05;;;;;;;20.47;13.30;;;;;;;7.37;46.85;96602.94;5038821;28;20560;-72
2023/03/06 01:20:31;;;;;;;23.43;14.17;;;;;;;7.45;46.50;96598.78;5040015;28;20285;-70
2023/03/06 01:22:56;;;;;;;24.37;13.23;;;;;;;7.50;46.33;96601.75;5046065;28;20176;-70
2023/03/06 01:25:25;;;;;;;22.40;13.63;;;;;;;7.43;46.50;96603.31;5051896;28;20532;-68
2023/03/06 01:27:50;;;;;;;26.47;14.43;;;;;;;7.45;46.31;96596.97;5064684;28;20204;-68
2023/03/06 01:30:16;;;;;;;20.63;12.70;;;;;;;7.46;46.03;96590.00;5047161;28;20441;-68
2023/03/06 01:32:42;;;;;;;21.00;14.00;;;;;;;7.48;46.13;96594.09;5047919;28;20189;-69
2023/03/06 01:35:09;;;;;;;21.77;12.20;;;;;;;7.46;46.31;96592.59;5057219;28;20314;-70
2023/03/06 01:37:35;;;;;;;22.90;13.40;;;;;;;7.50;45.81;96581.72;5060293;28;20523;-70
2023/03/06 01:40:01;;;;;;;22.13;13.00;;;;;;;7.43;45.98;96578.09;5035818;28;20437;-69
2023/03/06 01:42:26;;;;;;;21.63;13.50;;;;;;;7.46;46.14;96580.38;5050390;28;20414;-69
2023/03/06 01:45:15;;;;;;;20.50;12.97;;;;;;;7.47;45.38;96582.03;5052675;28;20673;-69
2023/03/06 01:47:40;;;;;;;20.37;11.87;;;;;;;7.51;45.26;96566.88;5028634;28;20210;-69
2023/03/06 01:50:08;;;;;;;18.57;12.17;;;;;;;7.51;45.36;96572.09;5049801;28;20444;-68
2023/03/06 01:52:39;;;;;;;19.77;12.33;;;;;;;7.48;45.45;96575.84;5051072;28;20190;-71
2023/03/06 01:55:08;;;;;;;21.60;12.90;;;;;;;7.52;45.48;96569.38;5052807;28;20448;-69
2023/03/06 01:57:37;;;;;;;19.83;12.03;;;;;;;7.43;46.08;96565.06;5054269;28;20423;-70
2023/03/06 02:00:24;;;;;;;18.00;12.00;;;;;;;7.43;45.83;96561.59;5031110;28;20455;-69
2023/03/06 02:02:53;;;;;;;18.20;12.20;;;;;;;7.51;46.56;96562.50;5045348;28;20471;-70
2023/03/06 02:05:19;;;;;;;20.23;12.60;;;;;;;7.53;45.86;96555.38;5059132;28;20902;-69
2023/03/06 02:07:45;;;;;;;18.37;11.57;;;;;;;7.52;46.11;96551.13;5052649;28;20425;-69
2023/03/06 02:10:11;;;;;;;16.33;10.80;;;;;;;7.55;45.74;96546.56;5060158;28;20289;-69
2023/03/06 02:12:42;;;;;;;17.70;10.77;;;;;;;7.50;45.59;96545.22;5063215;28;20469;-70
2023/03/06 02:15:08;;;;;;;18.43;11.43;;;;;;;7.57;45.43;96528.97;5061391;28;20878;-70
2023/03/06 02:17:34;;;;;;;26.90;10.80;;;;;;;7.57;45.81;96540.22;5064985;28;20429;-70
2023/03/06 02:20:07;;;;;;;17.53;10.50;;;;;;;7.51;45.27;96528.63;5054315;28;20807;-70
2023/03/06 02:22:37;;;;;;;15.93;10.43;;;;;;;7.51;45.58;96531.22;5059974;28;20428;-69
2023/03/06 02:25:28;;;;;;;24.67;12.17;;;;;;;7.52;45.73;96532.84;5047933;28;20418;-69
2023/03/06 02:27:54;;;;;;;18.20;10.53;;;;;;;7.59;45.61;96532.25;5042788;28;20436;-69
2023/03/06 02:30:20;;;;;;;17.33;11.57;;;;;;;7.59;45.46;96521.81;5053282;28;20536;-70
2023/03/06 02:32:45;;;;;;;19.47;11.23;;;;;;;7.58;45.00;96513.19;5062068;28;20190;-69
2023/03/06 02:35:26;;;;;;;20.43;11.63;;;;;;;7.60;45.52;96513.03;5054368;28;20465;-70
2023/03/06 02:37:52;;;;;;;17.67;11.37;;;;;;;7.58;45.85;96512.34;5063055;28;20183;-69
2023/03/06 02:40:21;;;;;;;18.50;11.20;;;;;;;7.60;45.82;96503.44;5054002;28;20440;-70
2023/03/06 02:42:54;;;;;;;18.50;10.63;;;;;;;7.65;45.73;96511.59;5057895;28;20219;-69
2023/03/06 02:45:25;;;;;;;13.97;10.13;;;;;;;7.63;45.23;96504.91;5052935;28;20556;-68
2023/03/06 02:47:50;;;;;;;17.63;10.30;;;;;;;7.53;45.84;96500.59;5056286;28;20420;-69
2023/03/06 02:50:16;;;;;;;16.53;10.63;;;;;;;7.56;45.75;96493.47;5053814;28;20443;-68
2023/03/06 02:52:41;;;;;;;17.17;11.47;;;;;;;7.55;46.88;96494.41;5045649;28;20182;-69
2023/03/06 02:55:07;;;;;;;20.40;12.57;;;;;;;7.52;47.43;96496.34;5056921;28;20583;-69
2023/03/06 02:57:33;;;;;;;19.90;11.87;;;;;;;7.52;47.11;96500.72;5047301;28;20190;-70
2023/03/06 02:59:58;;;;;;;21.03;11.83;;;;;;;7.46;47.27;96488.31;5060746;28;20448;-70
2023/03/06 03:02:23;;;;;;;20.20;12.00;;;;;;;7.43;47.33;96494.66;5056462;28;20667;-70
2023/03/06 03:04:49;;;;;;;21.53;12.90;;;;;;;7.35;47.28;96490.19;5056035;28;20298;-68
2023/03/06 03:07:14;;;;;;;22.93;12.10;;;;;;;7.32;48.09;96497.47;5049967;28;20246;-69
2023/03/06 03:09:40;;;;;;;19.33;12.67;;;;;;;7.26;48.03;96495.47;5055144;28;20239;-70
2023/03/06 03:12:05;;;;;;;18.70;11.97;;;;;;;7.27;48.25;96503.13;5055652;28;20269;-70
2023/03/06 03:14:31;;;;;;;21.00;12.40;;;;;;;7.33;48.18;96496.50;5048496;28;20207;-69
2023/03/06 03:16:57;;;;;;;18.70;12.33;;;;;;;7.29;48.04;96495.19;5053579;28;20243;-69
2023/03/06 03:19:22;;;;;;;17.60;11.20;;;;;;;7.29;48.00;96492.56;5055971;28;20236;-69
2023/03/06 03:21:47;;;;;;;22.37;12.03;;;;;;;7.33;47.34;96492.13;5050987;28;20199;-68
2023/03/06 03:24:13;;;;;;;17.47;11.07;;;;;;;7.23;47.51;96486.97;5042524;28;20262;-68
2023/03/06 03:26:39;;;;;;;18.87;10.97;;;;;;;7.29;47.01;96489.97;5045380;28;20212;-68
2023/03/06 03:29:04;;;;;;;16.90;11.20;;;;;;;7.24;47.70;96485.19;5049367;28;20270;-69
2023/03/06 03:31:30;;;;;;;17.50;10.80;;;;;;;7.28;47.05;96483.91;5054315;28;20223;-68
2023/03/06 03:33:56;;;;;;;16.13;10.17;;;;;;;7.33;46.32;96480.84;5047938;28;20214;-68
2023/03/06 03:36:21;;;;;;;18.60;11.37;;;;;;;7.36;46.60;96478.78;5051729;28;20426;-68
2023/03/06 03:38:47;;;;;;;18.30;10.90;;;;;;;7.42;46.49;96479.97;5059156;28;20211;-69
2023/03/06 03:41:12;;;;;;;18.23;10.30;;;;;;;7.42;45.98;96477.38;5064362;28;20207;-69
2023/03/06 03:43:38;;;;;;;22.53;11.50;;;;;;;7.39;46.51;96480.28;5058273;28;20190;-69
2023/03/06 03:46:04;;;;;;;15.80;10.30;;;;;;;7.45;46.49;96482.25;5061402;28;20249;-69
2023/03/06 03:48:30;;;;;;;20.50;11.13;;;;;;;7.41;46.50;96478.34;5045756;28;20188;-69
2023/03/06 03:51:03;;;;;;;15.53;10.43;;;;;;;7.42;45.94;96474.75;5045534;28;20782;-68
2023/03/06 03:53:28;;;;;;;14.90;10.13;;;;;;;7.30;46.50;96481.19;5037181;28;20196;-68
2023/03/06 03:55:54;;;;;;;19.90;11.27;;;;;;;7.32;46.22;96471.41;5042187;28;20952;-68
2023/03/06 03:58:19;;;;;;;16.67;10.97;;;;;;;7.33;46.16;96471.25;5044145;28;20739;-70
2023/03/06 04:00:46;;;;;;;15.53;9.90;;;;;;;7.30;46.28;96465.53;5049169;28;20269;-69
2023/03/06 04:03:11;;;;;;;13.50;9.67;;;;;;;7.33;46.25;96460.84;5049480;28;20270;-68
2023/03/06 04:05:37;;;;;;;18.83;10.20;;;;;;;7.35;46.28;96455.47;5036470;28;20505;-69
2023/03/06 04:08:02;;;;;;;15.97;10.67;;;;;;;7.38;46.32;96468.19;5042317;28;20241;-69
2023/03/06 04:10:28;;;;;;;17.40;10.60;;;;;;;7.36;46.48;96455.31;5051692;28;20702;-68
2023/03/06 04:12:53;;;;;;;21.50;10.30;;;;;;;7.41;46.74;96460.09;5057569;28;20185;-68
2023/03/06 04:15:18;;;;;;;23.70;11.20;;;;;;;7.43;46.42;96454.72;5058890;28;20241;-68
2023/03/06 04:17:44;;;;;;;16.50;10.33;;;;;;;7.41;45.90;96454.88;5059647;28;20214;-69
2023/03/06 04:20:10;;;;;;;17.43;10.57;;;;;;;7.43;45.76;96445.13;5037656;28;20290;-69
2023/03/06 04:22:35;;;;;;;19.90;11.43;;;;;;;7.38;46.35;96458.56;5047920;28;20198;-69
2023/03/06 04:25:01;;;;;;;16.10;10.43;;;;;;;7.33;46.35;96449.56;5049228;28;20483;-70
2023/03/06 04:27:26;;;;;;;14.67;10.13;;;;;;;7.37;46.03;96456.13;5049258;28;20282;-69
2023/03/06 04:29:55;;;;;;;16.40;9.90;;;;;;;7.42;46.13;96448.69;5048714;28;20286;-70
2023/03/06 04:32:20;;;;;;;13.47;8.93;;;;;;;7.41;46.03;96454.88;5058570;28;20632;-70
2023/03/06 04:34:46;;;;;;;18.83;10.67;;;;;;;7.34;46.21;96456.44;5056464;28;20453;-70
2023/03/06 04:37:23;;;;;;;17.27;9.60;;;;;;;7.33;46.35;96439.16;5036096;28;20270;-69
2023/03/06 04:39:48;;;;;;;16.33;9.97;;;;;;;7.41;45.72;96434.03;5043517;28;20267;-69
2023/03/06 04:42:14;;;;;;;15.67;10.57;;;;;;;7.42;46.14;96438.28;5050965;28;20456;-70
2023/03/06 04:44:39;;;;;;;20.80;10.27;;;;;;;7.46;46.23;96434.38;5049612;28;20214;-69
2023/03/06 04:47:05;;;;;;;15.33;10.00;;;;;;;7.46;45.70;96431.75;5044666;28;20546;-69
2023/03/06 04:49:30;;;;;;;14.07;10.30;;;;;;;7.43;45.98;96436.47;5047988;28;20214;-69
2023/03/06 04:51:56;;;;;;;16.93;10.50;;;;;;;7.39;46.07;96428.13;5032239;28;20184;-69
2023/03/06 04:54:21;;;;;;;15.63;10.40;;;;;;;7.44;45.51;96430.28;5048508;28;20228;-67
2023/03/06 04:56:47;;;;;;;16.07;10.80;;;;;;;7.37;45.56;96435.28;5052560;28;20179;-67
2023/03/06 04:59:12;;;;;;;16.00;10.90;;;;;;;7.41;46.10;96434.03;5059450;28;20250;-68
2023/03/06 05:01:38;;;;;;;15.93;9.77;;;;;;;7.47;45.69;96435.19;5048520;28;20297;-69
2023/03/06 05:04:03;;;;;;;18.20;11.00;;;;;;;7.40;45.73;96434.97;5060579;28;20202;-69
2023/03/06 05:06:28;;;;;;;12.93;9.90;;;;;;;7.37;46.06;96435.28;5044209;28;20179;-69
2023/03/06 05:08:54;;;;;;;19.20;10.20;;;;;;;7.36;45.99;96429.25;5050743;28;20594;-69
2023/03/06 05:11:19;;;;;;;14.37;9.00;;;;;;;7.40;45.26;96434.97;5045375;28;20645;-69
2023/03/06 05:13:45;;;;;;;16.47;9.53;;;;;;;7.43;45.47;96429.47;5057322;28;20263;-68
2023/03/06 05:16:10;;;;;;;15.37;8.90;;;;;;;7.36;45.56;96428.44;5056790;28;20274;-68
2023/03/06 05:18:36;;;;;;;17.43;9.53;;;;;;;7.34;45.76;96420.78;5046221;28;20205;-70
2023/03/06 05:21:02;;;;;;;16.87;9.53;;;;;;;7.37;46.00;96427.47;5052074;28;20190;-68
2023/03/06 05:23:29;;;;;;;21.17;11.33;;;;;;;7.43;45.78;96426.03;5049241;28;20183;-68
2023/03/06 05:25:55;;;;;;;13.27;9.87;;;;;;;7.43;45.30;96428.66;5053632;28;20932;-68
2023/03/06 05:28:20;;;;;;;14.77;10.00;;;;;;;7.42;45.20;96429.59;5054077;28;20422;-68
2023/03/06 05:30:46;;;;;;;13.53;8.90;;;;;;;7.42;45.66;96430.44;5051999;28;20453;-68
2023/03/06 05:33:12;;;;;;;14.70;9.53;;;;;;;7.34;45.39;96419.94;5055690;28;20610;-68
2023/03/06 05:35:37;;;;;;;15.97;10.13;;;;;;;7.34;45.51;96425.16;5052408;28;20202;-68
2023/03/06 05:38:03;;;;;;;14.10;10.07;;;;;;;7.34;45.90;96419.94;5065130;28;20232;-68
2023/03/06 05:40:28;;;;;;;19.70;9.77;;;;;;;7.35;46.08;96413.75;5054738;28;20199;-68
2023/03/06 05:42:54;;;;;;;15.40;10.33;;;;;;;7.30;46.59;96411.59;5052825;28;20183;-68
2023/03/06 05:45:20;;;;;;;14.60;9.87;;;;;;;7.27;47.68;96409.28;5046949;28;20185;-68
2023/03/06 05:47:45;;;;;;;15.40;10.20;;;;;;;7.21;47.30;96415.94;5047938;28;20421;-68
2023/03/06 05:50:12;;;;;;;15.77;9.70;;;;;;;7.16;47.51;96412.97;5050761;28;20261;-68
2023/03/06 05:52:38;;;;;;;14.70;10.17;;;;;;;7.06;48.17;96417.41;5053726;28;20187;-68
2023/03/06 05:55:04;;;;;;;15.63;10.17;;;;;;;7.06;47.76;96422.63;5053322;28;20453;-68
2023/03/06 05:57:30;;;;;;;16.53;10.37;;;;;;;7.04;47.79;96425.41;5057018;28;20494;-69
2023/03/06 05:59:55;;;;;;;15.13;10.50;;;;;;;7.09;46.87;96418.94;5047436;28;20468;-68
2023/03/06 06:02:21;;;;;;;16.37;9.97;;;;;;;7.12;46.60;96424.66;5063211;28;20665;-68
2023/03/06 06:04:46;;;;;;;12.57;9.40;;;;;;;7.14;46.53;96425.31;5052224;28;20651;-69
2023/03/06 06:07:13;;;;;;;15.00;9.93;;;;;;;7.14;45.96;96420.13;5055862;28;20186;-68
2023/03/06 06:09:38;;;;;;;18.27;9.87;;;;;;;7.10;45.74;96418.75;5050095;28;20193;-69
2023/03/06 06:12:04;;;;;;;17.03;10.40;;;;;;;7.11;45.86;96428.22;5056149;28;20434;-69
2023/03/06 06:14:32;;;;;;;18.27;10.60;;;;;;;7.22;45.44;96428.00;5053202;28;20199;-70
2023/03/06 06:16:58;;;;;;;16.80;10.07;;;;;;;7.23;44.42;96421.81;5054679;28;20270;-67
2023/03/06 06:19:23;;;;;;;15.00;9.97;;;;;;;7.31;44.73;96431.50;5045188;28;20937;-68
2023/03/06 06:21:55;;;;;;;15.93;10.30;;;;;;;7.18;44.44;96437.06;5045869;28;20174;-70
2023/03/06 06:24:23;;;;;;;15.67;10.10;;;;;;;7.17;45.14;96425.03;5047426;28;20581;-69
2023/03/06 06:26:50;;;;;;;15.00;9.60;;;;;;;7.06;45.43;96433.06;5050146;28;20479;-69
2023/03/06 06:29:15;;;;;;;15.60;10.37;;;;;;;7.13;45.38;96431.50;5047745;28;20511;-69
2023/03/06 06:31:41;;;;;;;15.93;9.93;;;;;;;7.11;45.22;96430.81;5038286;28;21064;-69
2023/03/06 06:34:07;;;;;;;21.70;10.20;;;;;;;7.16;45.42;96431.22;5049625;28;20195;-71
2023/03/06 06:36:33;;;;;;;17.13;10.80;;;;;;;7.08;45.57;96425.91;5065027;28;20236;-69
2023/03/06 06:38:58;;;;;;;16.93;11.03;;;;;;;7.10;45.76;96429.19;5047865;28;20497;-71
2023/03/06 06:41:24;;;;;;;19.63;11.30;;;;;;;7.03;45.98;96426.38;5049076;28;20302;-69
2023/03/06 06:43:49;;;;;;;14.40;10.07;;;;;;;7.03;45.80;96422.94;5047811;28;20175;-70
2023/03/06 06:46:15;;;;;;;17.30;10.53;;;;;;;7.10;45.73;96417.97;5047575;28;20426;-70
2023/03/06 06:48:40;;;;;;;19.57;11.30;;;;;;;6.99;45.94;96419.84;5058567;28;20269;-71
2023/03/06 06:51:06;;;;;;;16.10;10.57;;;;;;;7.18;45.41;96421.44;5055876;28;20246;-70
2023/03/06 06:53:31;;;;;;;16.40;10.10;;;;;;;7.22;45.86;96428.00;5055925;28;20202;-68
2023/03/06 06:55:57;;;;;;;21.53;10.07;;;;;;;7.21;45.70;96426.34;5057304;28;20956;-69
2023/03/06 06:58:23;;;;;;;16.60;9.93;;;;;;;7.23;45.58;96428.81;5058002;28;20214;-70
2023/03/06 07:00:49;;;;;;;16.13;10.77;;;;;;;7.29;45.43;96422.19;5049497;28;20546;-69
2023/03/06 07:03:14;;;;;;;19.40;11.50;;;;;;;7.17;46.06;96427.63;5048562;28;20198;-70
2023/03/06 07:05:40;;;;;;;19.80;11.00;;;;;;;7.19;46.00;96433.50;5044672;28;20762;-68
2023/03/06 07:08:05;;;;;;;22.13;11.33;;;;;;;7.22;46.11;96428.00;5048688;28;20268;-69
2023/03/06 07:10:31;;;;;;;25.70;11.70;;;;;;;7.19;45.61;96430.88;5037117;28;20207;-68
2023/03/06 07:12:56;;;;;;;22.30;12.30;;;;;;;7.27;45.52;96431.94;5039357;28;20180;-67
2023/03/06 07:15:25;;;;;;;22.10;11.73;;;;;;;7.30;45.51;96439.47;5039706;28;20743;-69
2023/03/06 07:17:51;;;;;;;15.40;10.73;;;;;;;7.27;45.45;96437.97;5044091;28;20191;-69
2023/03/06 07:20:18;;;;;;;15.20;10.53;;;;;;;7.37;45.73;96438.69;5039577;28;20496;-71
2023/03/06 07:22:43;;;;;;;18.53;11.37;;;;;;;7.35;44.76;96443.25;5038713;28;20812;-70
2023/03/06 07:25:09;;;;;;;27.50;11.00;;;;;;;7.29;45.34;96440.44;5041627;28;20414;-70
2023/03/06 07:27:35;;;;;;;16.60;10.53;;;;;;;7.37;45.54;96453.53;5032910;28;20271;-69
2023/03/06 07:30:00;;;;;;;15.97;10.70;;;;;;;7.36;45.42;96447.50;5045947;28;20286;-70
2023/03/06 07:32:25;;;;;;;18.67;10.43;;;;;;;7.39;45.51;96451.59;5039417;28;20225;-70
2023/03/06 07:34:51;;;;;;;15.97;10.97;;;;;;;7.25;45.35;96450.31;5045616;28;20210;-70
2023/03/06 07:37:16;;;;;;;18.03;11.10;;;;;;;7.30;45.67;96449.91;5036391;28;20267;-69
2023/03/06 07:39:42;;;;;;;18.80;11.30;;;;;;;7.36;45.50;96446.69;5044086;28;20632;-71
2023/03/06 07:42:11;;;;;;;15.67;10.23;;;;;;;7.31;46.07;96448.94;5044592;28;20262;-69
2023/03/06 07:44:37;;;;;;;19.20;10.87;;;;;;;7.33;45.75;96449.56;5043943;28;20262;-69
2023/03/06 07:47:03;;;;;;;13.50;9.30;;;;;;;7.42;45.47;96455.69;5039382;28;20476;-69
2023/03/06 07:49:29;;;;;;;17.97;9.93;;;;;;;7.41;45.69;96454.88;5038534;28;20436;-69
2023/03/06 07:51:55;;;;;;;16.33;10.23;;;;;;;7.42;45.47;96453.91;5039651;28;20417;-69
2023/03/06 07:54:20;;;;;;;14.97;10.20;;;;;;;7.53;45.14;96453.66;5050341;28;20265;-71
2023/03/06 07:56:49;;;;;;;13.67;9.60;;;;;;;7.58;44.96;96457.59;5044527;28;20247;-73
2023/03/06 07:59:14;;;;;;;14.43;8.70;;;;;;;7.60;45.48;96455.66;5049567;28;20229;-70
2023/03/06 08:01:40;;;;;;;14.77;9.57;;;;;;;7.66;44.99;96460.28;5032823;28;20450;-70
2023/03/06 08:04:06;;;;;;;14.37;9.30;;;;;;;7.45;44.86;96464.00;5044470;28;20193;-69
2023/03/06 08:06:32;;;;;;;14.40;8.93;;;;;;;7.57;44.55;96462.00;5039388;28;20425;-70
2023/03/06 08:08:57;;;;;;;13.87;9.33;;;;;;;7.67;44.63;96459.31;5044928;28;20309;-70
2023/03/06 08:11:26;;;;;;;14.20;9.20;;;;;;;7.73;44.32;96461.28;5044310;28;20207;-71
2023/03/06 08:13:52;;;;;;;12.97;8.80;;;;;;;7.69;44.27;96460.78;5042377;28;20244;-71
2023/03/06 08:16:22;;;;;;;12.30;8.63;;;;;;;7.71;44.03;96465.84;5032903;28;20513;-70
2023/03/06 08:18:48;;;;;;;11.20;7.93;;;;;;;7.79;44.38;96465.91;5043757;28;20429;-69
2023/03/06 08:21:16;;;;;;;15.33;9.90;;;;;;;7.83;44.69;96469.03;5041291;28;20488;-71
2023/03/06 08:23:42;;;;;;;11.17;8.47;;;;;;;7.91;43.66;96465.66;5047008;28;20179;-69
2023/03/06 08:26:16;;;;;;;11.17;8.07;;;;;;;7.75;43.90;96458.56;5034995;28;20426;-69
2023/03/06 08:28:41;;;;;;;13.57;8.70;;;;;;;7.80;43.89;96457.13;5043695;28;20433;-70
2023/03/06 08:31:13;;;;;;;11.87;8.17;;;;;;;7.88;43.98;96463.34;5036629;28;20524;-70
2023/03/06 08:33:38;;;;;;;10.67;7.60;;;;;;;7.86;43.75;96458.28;5035521;28;20206;-70
2023/03/06 08:36:04;;;;;;;14.50;8.53;;;;;;;7.69;44.33;96459.94;5041559;28;21087;-71
2023/03/06 08:38:29;;;;;;;12.93;8.47;;;;;;;7.76;43.87;96460.16;5033829;28;20426;-70
2023/03/06 08:40:55;;;;;;;15.50;8.23;;;;;;;7.82;43.90;96468.19;5041720;28;20264;-70
2023/03/06 08:43:20;;;;;;;12.50;7.93;;;;;;;7.93;44.46;96464.53;5035241;28;20183;-70
2023/03/06 08:45:54;;;;;;;14.83;9.50;;;;;;;8.09;43.73;96463.00;5040773;28;20233;-69
2023/03/06 08:48:19;;;;;;;12.60;8.20;;;;;;;8.31;43.05;96464.25;5035179;28;20175;-71
2023/03/06 08:50:45;;;;;;;12.80;9.07;;;;;;;8.39;42.92;96472.13;5043184;28;20525;-70
2023/03/06 08:53:10;;;;;;;10.90;8.00;;;;;;;8.51;42.92;96470.06;5037671;28;20207;-69
2023/03/06 08:55:37;;;;;;;10.67;7.67;;;;;;;8.69;42.34;96462.16;5042528;28;20211;-68
2023/03/06 08:58:03;;;;;;;11.57;7.63;;;;;;;8.68;42.26;96464.91;5045150;28;20217;-69
2023/03/06 09:00:29;;;;;;;12.77;8.00;;;;;;;8.65;42.25;96473.03;5048695;28;20993;-68
2023/03/06 09:02:55;;;;;;;11.57;7.80;;;;;;;8.81;41.70;96467.06;5049695;28;20182;-68
2023/03/06 09:05:20;;;;;;;13.57;8.17;;;;;;;8.88;42.21;96466.25;5057383;28;20449;-70
2023/03/06 09:07:46;;;;;;;13.57;7.63;;;;;;;8.83;41.79;96462.47;5042973;28;20236;-69
2023/03/06 09:10:16;;;;;;;10.70;7.83;;;;;;;8.89;41.93;96467.09;5055089;28;20566;-68
2023/03/06 09:12:42;;;;;;;11.20;8.00;;;;;;;8.93;41.72;96457.13;5063871;28;20274;-71
2023/03/06 09:15:09;;;;;;;10.27;7.30;;;;;;;8.96;41.67;96462.84;5041945;28;20461;-69
2023/03/06 09:17:34;;;;;;;10.33;7.60;;;;;;;9.01;41.83;96463.19;5057350;28;20429;-71
2023/03/06 09:20:00;;;;;;;17.00;8.40;;;;;;;8.96;41.52;96468.06;5058303;28;20442;-69
2023/03/06 09:22:25;;;;;;;12.03;7.63;;;;;;;8.87;42.05;96467.25;5056339;28;20260;-69
2023/03/06 09:24:51;;;;;;;11.27;7.93;;;;;;;8.93;42.25;96468.41;5048209;28;20203;-70
2023/03/06 09:27:17;;;;;;;11.17;8.20;;;;;;;8.94;41.84;96472.66;5045801;28;20179;-70
2023/03/06 09:29:42;;;;;;;11.03;7.00;;;;;;;8.96;41.92;96472.50;5053545;28;20187;-70
2023/03/06 09:32:08;;;;;;;9.60;7.20;;;;;;;8.99;42.21;96472.97;5053551;28;20923;-70
2023/03/06 09:34:33;;;;;;;8.67;6.80;;;;;;;8.85;41.66;96481.44;5051150;28;20280;-71
2023/03/06 09:37:01;;;;;;;13.13;8.10;;;;;;;9.09;41.84;96472.00;5043782;28;20201;-71
2023/03/06 09:39:26;;;;;;;10.50;7.80;;;;;;;9.14;41.56;96474.97;5057095;28;20545;-71
2023/03/06 09:41:52;;;;;;;12.17;8.23;;;;;;;9.16;41.43;96471.22;5051075;28;20440;-71
2023/03/06 09:44:20;;;;;;;10.60;7.50;;;;;;;9.15;40.90;96479.22;5043586;28;20232;-72
2023/03/06 09:47:07;;;;;;;9.03;6.77;;;;;;;9.16;41.31;96471.22;5065237;28;20722;-71
2023/03/06 09:49:39;;;;;;;10.73;7.60;;;;;;;9.27;41.25;96483.16;5054333;28;21027;-72
2023/03/06 09:52:25;;;;;;;9.47;7.10;;;;;;;9.31;41.82;96476.66;5030686;28;20425;-72
2023/03/06 09:55:11;;;;;;;9.53;6.90;;;;;;;9.39;41.34;96473.19;5049211;28;20472;-72
2023/03/06 09:58:02;;;;;;;11.17;7.40;;;;;;;9.47;41.37;96472.38;5049966;28;20426;-71
2023/03/06 10:00:43;;;;;;;11.50;7.20;;;;;;;9.52;41.52;96473.53;5031908;28;20521;-73
2023/03/06 10:03:28;;;;;;;10.57;7.40;;;;;;;9.44;41.40;96484.00;5042392;28;20475;-70
2023/03/06 10:06:13;;;;;;;9.90;7.00;;;;;;;9.43;41.48;96474.50;5061243;28;20454;-70
2023/03/06 10:08:48;;;;;;;10.47;7.90;;;;;;;9.47;41.63;96475.00;5056711;28;20720;-70
2023/03/06 10:11:22;;;;;;;10.20;7.20;;;;;;;9.37;41.40;96475.97;5051239;28;20444;-71
2023/03/06 10:14:09;;;;;;;10.43;7.77;;;;;;;9.41;41.52;96480.91;5058389;28;20440;-69
2023/03/06 10:16:34;;;;;;;9.57;6.80;;;;;;;9.47;42.00;96483.69;5042320;28;20805;-72
2023/03/06 10:19:03;;;;;;;9.37;7.00;;;;;;;9.41;41.32;96483.50;5050130;28;20425;-71
2023/03/06 10:21:44;;;;;;;13.80;7.83;;;;;;;9.42;41.48;96477.31;5055521;28;20201;-71
2023/03/06 10:24:15;;;;;;;10.63;8.27;;;;;;;9.53;41.71;96472.53;5047079;28;20663;-72
2023/03/06 10:26:44;;;;;;;11.90;7.03;;;;;;;9.59;40.66;96473.69;5060282;28;20421;-71
2023/03/06 10:29:09;;;;;;;8.90;7.40;;;;;;;9.50;41.21;96467.66;5048025;28;20414;-72
2023/03/06 10:31:35;;;;;;;9.30;6.83;;;;;;;9.57;41.21;96480.06;5047064;28;20547;-73
2023/03/06 10:34:23;;;;;;;10.63;6.97;;;;;;;9.44;41.71;96475.34;5050638;28;20194;-71
2023/03/06 10:36:49;;;;;;;11.23;7.00;;;;;;;9.33;41.23;96482.50;5047953;28;20186;-72
2023/03/06 10:39:19;;;;;;;8.40;6.80;;;;;;;9.31;40.98;96479.25;5058459;28;20418;-72
2023/03/06 10:41:45;;;;;;;10.10;6.70;;;;;;;9.27;41.71;96475.31;5059215;28;20456;-72
2023/03/06 10:44:10;;;;;;;12.73;7.90;;;;;;;9.27;41.19;96467.47;5055368;28;20409;-73
2023/03/06 10:46:41;;;;;;;9.80;7.30;;;;;;;9.29;41.08;96478.59;5056915;28;20437;-72
2023/03/06 10:49:13;;;;;;;11.07;7.37;;;;;;;9.28;41.25;96474.34;5055452;28;20193;-71
2023/03/06 10:51:38;;;;;;;10.10;7.03;;;;;;;9.24;41.64;96472.22;5056834;28;20445;-72
2023/03/06 10:54:12;;;;;;;8.57;7.10;;;;;;;9.12;41.58;96475.16;5058123;28;20512;-71
2023/03/06 10:56:43;;;;;;;11.30;6.87;;;;;;;8.96;41.86;96473.28;5060294;28;20189;-71
2023/03/06 10:59:24;;;;;;;9.77;7.10;;;;;;;8.91;41.81;96465.94;5054231;28;20426;-73
2023/03/06 11:01:56;;;;;;;9.40;6.93;;;;;;;8.93;41.59;96473.63;5048660;28;20864;-71
2023/03/06 11:04:30;;;;;;;10.80;6.77;;;;;;;8.59;41.63;96471.88;5051825;28;20423;-72
2023/03/06 11:07:10;;;;;;;9.33;7.20;;;;;;;8.70;41.37;96473.41;5065730;28;20429;-73
2023/03/06 11:09:35;;;;;;;9.60;7.40;;;;;;;8.83;41.62;96462.47;5053763;28;20788;-71
2023/03/06 11:12:24;;;;;;;8.97;6.50;;;;;;;8.90;41.28;96463.50;5059573;28;20528;-72
2023/03/06 11:15:16;;;;;;;14.10;7.90;;;;;;;8.90;41.31;96463.50;5049620;28;20575;-71
2023/03/06 11:17:50;;;;;;;11.93;8.13;;;;;;;8.91;41.11;96462.53;5048410;28;20457;-72
2023/03/06 11:20:39;;;;;;;10.17;7.20;;;;;;;9.06;41.74;96466.16;5060120;28;20782;-72
2023/03/06 11:23:15;;;;;;;9.20;7.20;;;;;;;8.95;41.50;96458.59;5046844;28;20428;-71
2023/03/06 11:26:09;;;;;;;10.40;7.70;;;;;;;9.04;41.42;96455.03;5063826;28;20433;-71
2023/03/06 11:28:53;;;;;;;11.57;8.10;;;;;;;9.16;40.80;96452.13;5044995;28;20471;-71
2023/03/06 11:31:21;;;;;;;11.90;7.70;;;;;;;9.17;40.47;96462.41;5048091;28;20476;-71